»·PEaware :: SWA173 KMDW-KFNT

SWA173 :: KMDW-KFNT

FLIGHT INFORMATION

Flight Status: Arrived
Operator:
Southwest Airlines
More flights by this operator :: More flights under this callsign
Pilot: Anonymous 14085 (14085)
Aircraft: BOEING 737-300
(B733)
More flights by this aircraft type
Origin: KMDW Chicago-Midway
United States
Destination: KFNT Bishop Intl
United States
More flights between these airports :: More routes between these airports
Route: LEWKE GIJ FNT
File this flight plan on PilotEdge
Remarks: PBN / A1B3B4B5D3D4 DOF / 170606 REG / N372SB EET / KZOB0023 OPR / SWA RMK / TCAS SIMBRIEF
Altitude:
(Current/Filed)
29,000ft
Speed:
(Current/Filed)
443kts
Departed: 05-Jun-17 09:49 PM
Arrived: 05-Jun-17 10:32 PM
Distance/Time
Traveled:
191nm/0:43
Distance/Time
To Go:
Arrived

Flight Plot

Page will automatically refresh every two minutes.

Flight plan parsing failed; only flown route is shown


Map Options




Map Legend


Flown Route
Filed Route
Departure Airport
Arrival Airport
Navaid (VOR, NDB)
Fix

Horizontal Profiles

Position Reports

Time Latitude Longitude Heading Altitude Ground
Speed
05-Jun-17 21:41 41.788092 -87.744541 137 615ft 0kts
05-Jun-17 21:42 41.788092 -87.744541 137 615ft 0kts
05-Jun-17 21:43 41.788092 -87.744541 137 615ft 0kts
05-Jun-17 21:44 41.788092 -87.744541 137 615ft 0kts
05-Jun-17 21:45 41.788092 -87.744541 137 615ft 0kts
05-Jun-17 21:46 41.788127 -87.744583 137 615ft 0kts
05-Jun-17 21:47 41.788475 -87.745011 136 615ft 0kts
05-Jun-17 21:48 41.788475 -87.745011 137 615ft 0kts
05-Jun-17 21:49 41.788922 -87.744550 11 615ft 6kts
05-Jun-17 21:50 41.791122 -87.742144 7 615ft 11kts
05-Jun-17 21:51 41.790370 -87.745132 224 615ft 67kts
05-Jun-17 21:52 41.752629 -87.775134 162 1936ft 229kts
05-Jun-17 21:53 41.754845 -87.707426 14 5114ft 260kts
05-Jun-17 21:54 41.798427 -87.644692 89 8992ft 281kts
05-Jun-17 21:55 41.792940 -87.533316 92 11830ft 329kts
05-Jun-17 21:56 41.784991 -87.405607 91 14879ft 358kts
05-Jun-17 21:57 41.776252 -87.270493 92 17880ft 377kts
05-Jun-17 21:58 41.766830 -87.127766 91 20667ft 394kts
05-Jun-17 21:59 41.763437 -86.983442 84 22046ft 397kts
05-Jun-17 22:00 41.765179 -86.840191 85 22019ft 393kts
05-Jun-17 22:01 41.766470 -86.694146 85 22023ft 393kts
05-Jun-17 22:02 41.767657 -86.547615 85 22004ft 394kts
05-Jun-17 22:03 41.768661 -86.401448 85 21995ft 394kts
05-Jun-17 22:04 41.790158 -86.264657 52 21999ft 380kts
05-Jun-17 22:05 41.846565 -86.145067 54 21957ft 383kts
05-Jun-17 22:06 41.904159 -86.017223 55 21913ft 419kts
05-Jun-17 22:07 41.964170 -85.883035 55 22024ft 420kts
05-Jun-17 22:08 42.023775 -85.749218 55 22024ft 419kts
05-Jun-17 22:09 42.082866 -85.615883 55 22054ft 393kts
05-Jun-17 22:10 42.134311 -85.499871 54 22023ft 362kts
05-Jun-17 22:11 42.182953 -85.389475 54 21673ft 344kts
05-Jun-17 22:12 42.230194 -85.281444 55 20454ft 329kts
05-Jun-17 22:13 42.276482 -85.175404 55 19199ft 331kts
05-Jun-17 22:14 42.323047 -85.068408 56 17513ft 330kts
05-Jun-17 22:15 42.368962 -84.962502 56 16060ft 322kts
05-Jun-17 22:16 42.413285 -84.859917 56 14690ft 313kts
05-Jun-17 22:17 42.456598 -84.759325 56 13204ft 309kts
05-Jun-17 22:18 42.499372 -84.659633 56 11714ft 305kts
05-Jun-17 22:19 42.541833 -84.560358 57 10211ft 305kts
05-Jun-17 22:20 42.584320 -84.460648 57 8829ft 301kts
05-Jun-17 22:21 42.624220 -84.366701 57 7826ft 277kts
05-Jun-17 22:22 42.660623 -84.280533 59 6810ft 258kts
05-Jun-17 22:23 42.693296 -84.197361 65 5812ft 243kts
05-Jun-17 22:24 42.719085 -84.117769 65 5126ft 220kts
05-Jun-17 22:25 42.738895 -84.042500 75 4438ft 203kts
05-Jun-17 22:26 42.750948 -83.970250 69 3687ft 194kts
05-Jun-17 22:27 42.774731 -83.904202 60 2800ft 187kts
05-Jun-17 22:28 42.795906 -83.847176 64 2052ft 151kts
05-Jun-17 22:29 42.811616 -83.797658 38 1835ft 162kts
05-Jun-17 22:30 42.854480 -83.769575 18 2575ft 165kts
05-Jun-17 22:31 42.892301 -83.744039 31 1897ft 145kts
05-Jun-17 22:32 42.927054 -83.716880 21 1584ft 149kts
05-Jun-17 22:33 42.964814 -83.712202 318 1070ft 135kts
05-Jun-17 22:34 42.969167 -83.751018 267 773ft 37kts
05-Jun-17 22:35 42.970149 -83.753788 268 773ft 0kts
05-Jun-17 22:36 42.970149 -83.753788 268 773ft 0kts
05-Jun-17 22:37 42.970149 -83.753788 269 773ft 0kts
05-Jun-17 22:38 42.963638 -83.711031 324 1083ft 135kts
05-Jun-17 22:39 42.962858 -83.710377 327 1094ft 134kts
05-Jun-17 22:40 42.958342 -83.707990 343 1175ft 136kts
05-Jun-17 22:41 42.954485 -83.707240 354 1233ft 138kts
05-Jun-17 22:42 42.969304 -83.745593 267 773ft 90kts
05-Jun-17 22:43 42.970149 -83.753788 269 773ft 0kts

Navigation Log

Ident Type
Flight plan parsing failed, navigation log unavailable